createdAt,value
2022-11-22T00:00:46.260Z,9.27
2022-11-22T00:03:14.051Z,7.93
2022-11-22T00:05:40.965Z,8.00
2022-11-22T00:08:08.284Z,8.23
2022-11-22T00:10:35.330Z,7.77
2022-11-22T00:13:02.438Z,8.47
2022-11-22T00:15:30.042Z,7.50
2022-11-22T00:17:57.136Z,5.90
2022-11-22T00:20:25.051Z,8.13
2022-11-22T00:22:51.996Z,8.80
2022-11-22T00:25:18.891Z,8.77
2022-11-22T00:27:45.807Z,6.63
2022-11-22T00:30:12.732Z,5.60
2022-11-22T00:32:39.642Z,5.17
2022-11-22T00:35:09.070Z,8.97
2022-11-22T00:37:35.873Z,4.37
2022-11-22T00:40:02.875Z,7.47
2022-11-22T00:42:29.740Z,11.80
2022-11-22T00:44:57.086Z,6.80
2022-11-22T00:47:24.200Z,7.53
2022-11-22T00:49:51.010Z,6.57
2022-11-22T00:52:17.884Z,6.50
2022-11-22T00:54:50.067Z,11.20
2022-11-22T00:57:18.382Z,6.80
2022-11-22T00:59:45.270Z,8.97
2022-11-22T01:02:12.094Z,7.50
2022-11-22T01:04:39.048Z,7.10
2022-11-22T01:07:05.968Z,7.17
2022-11-22T01:09:32.886Z,8.13
2022-11-22T01:11:59.799Z,9.23
2022-11-22T01:14:26.645Z,7.70
2022-11-22T01:16:53.473Z,9.77
2022-11-22T01:19:21.073Z,8.93
2022-11-22T01:21:47.928Z,7.83
2022-11-22T01:24:14.813Z,8.40
2022-11-22T01:26:41.660Z,7.37
2022-11-22T01:29:08.500Z,6.80
2022-11-22T01:31:35.497Z,8.40
2022-11-22T01:34:05.273Z,6.83
2022-11-22T01:36:32.091Z,8.47
2022-11-22T01:38:58.977Z,7.87
2022-11-22T01:41:25.995Z,8.10
2022-11-22T01:43:52.822Z,8.93
2022-11-22T01:46:40.004Z,7.63
2022-11-22T01:49:18.321Z,8.40
2022-11-22T01:51:48.231Z,8.63
2022-11-22T01:54:19.696Z,6.33
2022-11-22T01:56:50.454Z,7.50
2022-11-22T01:59:22.451Z,8.63
2022-11-22T02:01:49.676Z,9.17
2022-11-22T02:04:20.114Z,9.00
2022-11-22T02:07:13.064Z,8.83
2022-11-22T02:09:42.431Z,9.97
2022-11-22T02:12:11.244Z,6.23
2022-11-22T02:14:40.624Z,7.07
2022-11-22T02:17:07.748Z,7.50
2022-11-22T02:19:42.947Z,6.13
2022-11-22T02:22:32.663Z,8.33
2022-11-22T02:25:18.228Z,7.97
2022-11-22T02:27:45.282Z,7.00
2022-11-22T02:30:12.990Z,8.07
2022-11-22T02:32:39.865Z,7.20
2022-11-22T02:35:18.784Z,9.03
2022-11-22T02:37:46.519Z,8.23
2022-11-22T02:40:15.551Z,9.70
2022-11-22T02:42:50.016Z,9.00
2022-11-22T02:45:16.909Z,10.23
2022-11-22T02:47:43.727Z,8.27
2022-11-22T02:50:11.995Z,8.57
2022-11-22T02:52:39.480Z,6.90
2022-11-22T02:55:06.506Z,9.70
2022-11-22T02:57:33.489Z,8.07
2022-11-22T03:00:00.357Z,15.40
2022-11-22T03:02:27.231Z,9.13
2022-11-22T03:04:54.094Z,7.97
2022-11-22T03:07:21.053Z,7.07
2022-11-22T03:09:47.962Z,8.67
2022-11-22T03:12:14.834Z,9.73
2022-11-22T03:14:42.976Z,7.67
2022-11-22T03:17:11.204Z,7.10
2022-11-22T03:19:38.030Z,7.73
2022-11-22T03:22:04.903Z,6.50
2022-11-22T03:24:31.930Z,6.10
2022-11-22T03:26:58.832Z,9.07
2022-11-22T03:29:25.667Z,8.00
2022-11-22T03:31:52.644Z,8.13
2022-11-22T03:34:19.496Z,8.27
2022-11-22T03:36:46.495Z,8.80
2022-11-22T03:39:13.973Z,7.23
2022-11-22T03:41:41.572Z,8.63
2022-11-22T03:44:08.475Z,7.70
2022-11-22T03:46:35.467Z,7.03
2022-11-22T03:49:02.352Z,9.80
2022-11-22T03:51:29.228Z,9.97
2022-11-22T03:53:56.036Z,9.00
2022-11-22T03:56:23.036Z,8.20
2022-11-22T03:58:50.144Z,7.93
2022-11-22T04:01:17.205Z,6.90
2022-11-22T04:03:45.990Z,7.60
2022-11-22T04:06:12.902Z,7.10
2022-11-22T04:08:39.908Z,9.73
2022-11-22T04:11:06.745Z,8.10
2022-11-22T04:13:52.437Z,10.10
2022-11-22T04:16:19.348Z,7.20
2022-11-22T04:18:46.193Z,8.50
2022-11-22T04:21:31.759Z,9.33
2022-11-22T04:24:17.153Z,8.37
2022-11-22T04:26:43.957Z,6.23
2022-11-22T04:29:10.881Z,6.97
2022-11-22T04:31:56.844Z,6.77
2022-11-22T04:34:23.911Z,6.20
2022-11-22T04:36:50.780Z,7.70
2022-11-22T04:39:17.689Z,8.83
2022-11-22T04:41:44.676Z,6.87
2022-11-22T04:44:49.972Z,8.07
2022-11-22T04:47:36.594Z,8.93
2022-11-22T04:50:24.953Z,10.13
2022-11-22T04:52:54.166Z,7.10
2022-11-22T04:55:21.596Z,8.17
2022-11-22T04:57:48.839Z,8.13
2022-11-22T05:00:16.238Z,8.77
2022-11-22T05:02:43.068Z,6.40
2022-11-22T05:05:10.638Z,8.10
2022-11-22T05:07:37.542Z,7.53
2022-11-22T05:10:04.964Z,6.63
2022-11-22T05:12:31.816Z,6.10
2022-11-22T05:14:58.621Z,7.80
2022-11-22T05:17:25.463Z,9.00
2022-11-22T05:19:52.320Z,11.40
2022-11-22T05:22:39.087Z,7.43
2022-11-22T05:25:06.041Z,10.30
2022-11-22T05:27:34.555Z,8.10
2022-11-22T05:30:01.376Z,9.57
2022-11-22T05:32:30.874Z,7.73
2022-11-22T05:34:58.045Z,9.33
2022-11-22T05:37:25.672Z,11.73
2022-11-22T05:39:53.860Z,7.13
2022-11-22T05:42:20.791Z,6.83
2022-11-22T05:44:47.716Z,9.27
2022-11-22T05:47:15.771Z,8.00
2022-11-22T05:49:46.088Z,7.30
2022-11-22T05:52:13.280Z,7.23
2022-11-22T05:54:40.316Z,7.03
2022-11-22T05:57:07.241Z,7.47
2022-11-22T05:59:34.254Z,6.87
2022-11-22T06:02:01.503Z,7.43
2022-11-22T06:04:28.446Z,11.10
2022-11-22T06:06:56.512Z,10.00
2022-11-22T06:09:23.384Z,8.60
2022-11-22T06:11:50.258Z,9.07
2022-11-22T06:14:17.125Z,10.60
2022-11-22T06:16:44.047Z,7.23
2022-11-22T06:19:10.943Z,10.27
2022-11-22T06:21:37.744Z,7.40
2022-11-22T06:24:04.942Z,8.77
2022-11-22T06:26:37.655Z,9.40
2022-11-22T06:29:06.143Z,11.03
2022-11-22T06:31:33.251Z,9.20
2022-11-22T06:34:00.877Z,10.63
2022-11-22T06:36:33.349Z,9.20
2022-11-22T06:39:00.491Z,10.03
2022-11-22T06:41:33.216Z,10.70
2022-11-22T06:44:03.467Z,9.83
2022-11-22T06:46:30.420Z,8.20
2022-11-22T06:48:57.341Z,8.93
2022-11-22T06:51:29.872Z,8.67
2022-11-22T06:53:58.079Z,9.73
2022-11-22T06:56:30.352Z,9.30
2022-11-22T06:58:57.962Z,14.67
2022-11-22T07:01:29.477Z,8.77
2022-11-22T07:03:59.163Z,11.30
2022-11-22T07:06:30.445Z,12.63
2022-11-22T07:08:58.521Z,11.30
2022-11-22T07:11:28.903Z,13.43
2022-11-22T07:14:01.839Z,12.27
2022-11-22T07:16:34.367Z,9.97
2022-11-22T07:19:01.298Z,12.27
2022-11-22T07:21:28.512Z,14.63
2022-11-22T07:23:56.193Z,10.23
2022-11-22T07:26:25.261Z,17.57
2022-11-22T07:28:55.857Z,13.80
2022-11-22T07:31:22.941Z,11.07
2022-11-22T07:33:49.804Z,14.13
2022-11-22T07:36:21.852Z,21.90
2022-11-22T07:38:49.991Z,14.73
2022-11-22T07:41:18.868Z,13.93
2022-11-22T07:43:47.067Z,11.53
2022-11-22T07:46:33.335Z,12.70
2022-11-22T07:49:01.761Z,15.57
2022-11-22T07:51:28.832Z,15.53
2022-11-22T07:53:56.713Z,18.23
2022-11-22T07:56:24.216Z,12.47
2022-11-22T07:58:51.179Z,16.87
2022-11-22T08:01:19.982Z,14.37
2022-11-22T08:03:47.335Z,11.20
2022-11-22T08:06:14.916Z,15.37
2022-11-22T08:08:42.052Z,13.10
2022-11-22T08:11:10.035Z,14.27
2022-11-22T08:13:40.369Z,10.17
2022-11-22T08:16:12.712Z,15.67
2022-11-22T08:18:40.354Z,14.90
2022-11-22T08:21:12.159Z,13.67
2022-11-22T08:23:40.794Z,11.80
2022-11-22T08:26:09.825Z,11.77
2022-11-22T08:28:36.878Z,14.23
2022-11-22T08:31:07.303Z,11.60
2022-11-22T08:33:34.558Z,13.23
2022-11-22T08:36:01.791Z,13.90
2022-11-22T08:38:28.837Z,15.27
2022-11-22T08:40:56.084Z,14.87
2022-11-22T08:43:23.318Z,15.17
2022-11-22T08:45:55.028Z,13.47
2022-11-22T08:48:23.542Z,15.30
2022-11-22T08:50:55.297Z,16.93
2022-11-22T08:53:22.626Z,13.30
2022-11-22T08:55:49.696Z,14.00
2022-11-22T08:58:16.761Z,19.70
2022-11-22T09:00:44.184Z,13.43
2022-11-22T09:03:11.110Z,12.40
2022-11-22T09:08:26.055Z,14.60
2022-11-22T09:10:54.231Z,12.67
2022-11-22T09:13:21.099Z,15.57
2022-11-22T09:15:48.184Z,11.67
2022-11-22T09:18:15.078Z,17.83
2022-11-22T09:20:42.116Z,17.10
2022-11-22T09:23:10.616Z,11.93
2022-11-22T09:25:37.431Z,13.57
2022-11-22T09:28:04.317Z,11.80
2022-11-22T09:30:31.627Z,11.57
2022-11-22T09:32:58.563Z,11.50
2022-11-22T09:35:25.389Z,17.30
2022-11-22T09:37:52.823Z,13.07
2022-11-22T09:40:19.925Z,12.03
2022-11-22T09:43:01.615Z,11.27
2022-11-22T09:46:23.607Z,14.93
2022-11-22T09:49:25.736Z,13.83
2022-11-22T09:52:10.643Z,12.30
2022-11-22T09:54:56.224Z,13.73
2022-11-22T09:57:29.201Z,14.90
2022-11-22T10:00:29.922Z,12.57
2022-11-22T10:03:05.478Z,12.13
2022-11-22T10:05:43.801Z,11.70
2022-11-22T10:08:20.107Z,9.67
2022-11-22T10:10:51.304Z,11.40
2022-11-22T10:13:26.084Z,13.43
2022-11-22T10:16:24.295Z,14.40
2022-11-22T10:19:10.429Z,14.53
2022-11-22T10:21:37.381Z,12.17
2022-11-22T10:24:04.882Z,14.27
2022-11-22T10:26:33.829Z,10.03
2022-11-22T10:29:17.697Z,11.47
2022-11-22T10:31:47.685Z,10.40
2022-11-22T10:34:26.814Z,10.20
2022-11-22T10:37:07.580Z,10.77
2022-11-22T10:39:56.516Z,11.93
2022-11-22T10:42:38.166Z,11.97
2022-11-22T10:45:27.220Z,11.73
2022-11-22T10:48:14.434Z,10.00
2022-11-22T10:50:47.218Z,12.57
2022-11-22T10:53:22.732Z,10.77
2022-11-22T10:56:12.601Z,10.30
2022-11-22T10:59:13.131Z,10.13
2022-11-22T11:01:42.848Z,10.50
2022-11-22T11:04:12.273Z,12.13
2022-11-22T11:07:11.105Z,13.03
2022-11-22T11:12:44.754Z,11.57
2022-11-22T11:15:54.284Z,7.80
2022-11-22T11:18:47.673Z,13.30
2022-11-22T11:21:15.320Z,13.13
2022-11-22T11:23:43.636Z,9.70
2022-11-22T11:26:27.169Z,11.90
2022-11-22T11:29:18.948Z,10.57
2022-11-22T11:32:12.867Z,10.70
2022-11-22T11:34:43.653Z,12.27
2022-11-22T11:37:31.933Z,9.77
2022-11-22T11:39:58.943Z,8.33
2022-11-22T11:42:29.337Z,9.10
2022-11-22T11:45:25.367Z,10.17
2022-11-22T11:47:52.258Z,9.00
2022-11-22T11:50:24.252Z,12.47
2022-11-22T11:52:56.757Z,7.53
2022-11-22T11:55:24.358Z,8.30
2022-11-22T11:57:53.578Z,9.13
2022-11-22T12:00:26.257Z,9.70
2022-11-22T12:02:59.448Z,9.53
2022-11-22T12:05:30.247Z,8.77
2022-11-22T12:07:57.176Z,9.23
2022-11-22T12:10:38.260Z,9.80
2022-11-22T12:13:24.771Z,11.03
2022-11-22T12:16:13.644Z,11.40
2022-11-22T12:19:13.661Z,9.97
2022-11-22T12:22:19.744Z,8.17
2022-11-22T12:25:31.594Z,10.87
2022-11-22T12:28:00.909Z,11.27
2022-11-22T12:30:28.201Z,8.60
2022-11-22T12:33:05.390Z,16.20
2022-11-22T12:35:43.776Z,8.93
2022-11-22T12:38:42.030Z,8.80
2022-11-22T12:41:13.741Z,9.93
2022-11-22T12:43:47.055Z,9.93
2022-11-22T12:46:31.110Z,10.93
2022-11-22T12:49:23.701Z,10.73
2022-11-22T12:51:53.556Z,10.33
2022-11-22T12:54:28.209Z,9.23
2022-11-22T12:57:00.552Z,10.00
2022-11-22T12:59:54.852Z,9.87
2022-11-22T13:02:40.798Z,11.50
2022-11-22T13:05:15.697Z,8.90
2022-11-22T13:08:15.104Z,12.03
2022-11-22T13:11:18.848Z,10.83
2022-11-22T13:13:50.597Z,10.80
2022-11-22T13:16:17.923Z,10.80
2022-11-22T13:18:50.373Z,12.77
2022-11-22T13:21:58.684Z,10.00
2022-11-22T13:24:31.457Z,9.63
2022-11-22T13:27:04.483Z,10.40
2022-11-22T13:29:35.598Z,9.60
2022-11-22T13:32:13.107Z,10.87
2022-11-22T13:35:07.511Z,13.37
2022-11-22T13:37:38.306Z,11.80
2022-11-22T13:40:25.578Z,12.27
2022-11-22T13:43:21.191Z,11.43
2022-11-22T13:45:58.536Z,14.93
2022-11-22T13:48:40.792Z,12.53
2022-11-22T13:51:15.588Z,17.67
2022-11-22T13:53:50.596Z,13.40
2022-11-22T13:56:20.253Z,10.57
2022-11-22T13:59:04.913Z,11.13
2022-11-22T14:01:34.939Z,12.43
2022-11-22T14:04:17.088Z,12.33
2022-11-22T14:06:50.956Z,14.63
2022-11-22T14:09:30.487Z,14.23
2022-11-22T14:12:11.731Z,13.47
2022-11-22T14:14:53.401Z,12.87
2022-11-22T14:17:41.695Z,14.27
2022-11-22T14:20:42.326Z,11.57
2022-11-22T14:23:38.133Z,12.03
2022-11-22T14:26:08.019Z,16.50
2022-11-22T14:28:59.069Z,12.10
2022-11-22T14:31:30.894Z,17.27
2022-11-22T14:34:19.601Z,16.57
2022-11-22T14:37:15.475Z,11.73
2022-11-22T14:39:45.332Z,13.10
2022-11-22T14:45:43.952Z,12.50
2022-11-22T14:48:27.700Z,13.80
2022-11-22T14:51:32.499Z,11.30
2022-11-22T14:54:16.033Z,13.73
2022-11-22T14:56:43.728Z,11.63
2022-11-22T14:59:58.652Z,14.40
2022-11-22T15:02:26.633Z,11.97
2022-11-22T15:09:11.858Z,13.53
2022-11-22T15:09:17.860Z,11.00
2022-11-22T15:11:43.168Z,9.50
2022-11-22T15:14:46.537Z,12.17
2022-11-22T15:57:38.563Z,6.83
2022-11-22T16:00:28.848Z,7.87
2022-11-22T16:02:58.397Z,6.63
2022-11-22T16:06:06.187Z,9.03
2022-11-22T16:08:26.633Z,8.90
2022-11-22T16:10:58.192Z,8.50
2022-11-22T16:13:28.167Z,6.27
2022-11-22T16:16:13.660Z,8.50
2022-11-22T16:18:41.667Z,10.03
